Mission, Arizona
Current Conditions -  °F | °C
As of 11:58 AM on Thursday 30 Oct 2014 (Local Time) from KDMA Reporting Station
Clear Clear  
Wind Chill: 87°   Ceiling: Unl
Heat Index: 87°   Visibility: 10mi
Dew Point: 38°   Wind: 5mph
Humidity: 18%   Direction: 40°NE
Pressure: 30.05"   Gusts: NA
Location:  32.1206°N, 110.871°W
Report Text: KDMA 301858Z AUTO 04004KT 10SM CLR 30/03 A3005 RMK AO2 SLP140 T03030032 $
Loading
Personal Weather Stations






























Interactive Weather Map
Tropical Storm Tracking
New forecast layout! Learn more

10-Day Weather Forecast

Advertisements
Track Severe Weather on mobile